BAW5 OJAQ-LIPZ
Flight info
| Callsign | BAW5 |
|---|---|
| Flight time | N/A |
| Altitude | 60000 |
| Route | METSA DCT ULINA DCT MENLI L677 CVO DCT METRU DCT EBOKA DCT LORNO DCT PAPIZ DCT AGOMO DCT BASOG |
| Aircraft | CONC/H-SDE2E3FGHIRYW/I |
Departure
| Time | 2026-04-26 16:38 |
|---|---|
| Airport | King Hussein International Airport (OJAQ) |
Arrival
| Time | N/A |
|---|---|
| Airport | Venice Marco Polo Airport (LIPZ) |
| Time | Latitude | Longitude | Altitude | Speed | Heading |
|---|---|---|---|---|---|
| 2026-04-26 15:11 | 29.61007 | 35.02027 | 186 ft | 0 kts | 106° |
| 2026-04-26 16:33 | 29.61016 | 35.02041 | 186 ft | 4 kts | 31° |
| 2026-04-26 16:33 | 29.61058 | 35.02026 | 186 ft | 8 kts | 340° |
| 2026-04-26 16:34 | 29.61127 | 35.02000 | 186 ft | 13 kts | 344° |
| 2026-04-26 16:34 | 29.61224 | 35.02025 | 186 ft | 17 kts | 18° |
| 2026-04-26 16:34 | 29.61348 | 35.02070 | 186 ft | 21 kts | 17° |
| 2026-04-26 16:34 | 29.61499 | 35.02121 | 186 ft | 24 kts | 13° |
| 2026-04-26 16:35 | 29.61669 | 35.02179 | 186 ft | 27 kts | 18° |
| 2026-04-26 16:35 | 29.61854 | 35.02245 | 186 ft | 29 kts | 18° |
| 2026-04-26 16:35 | 29.62051 | 35.02312 | 186 ft | 30 kts | 16° |
| 2026-04-26 16:35 | 29.62251 | 35.02380 | 186 ft | 27 kts | 15° |
| 2026-04-26 16:36 | 29.62359 | 35.02340 | 186 ft | 20 kts | 277° |
| 2026-04-26 16:36 | 29.62371 | 35.02237 | 186 ft | 9 kts | 230° |
| 2026-04-26 16:36 | 29.62353 | 35.02230 | 186 ft | 0 kts | 198° |
| 2026-04-26 16:37 | 29.62277 | 35.02194 | 186 ft | 45 kts | 206° |
| 2026-04-26 16:37 | 29.61736 | 35.02008 | 186 ft | 124 kts | 198° |
| 2026-04-26 16:37 | 29.60729 | 35.01652 | 186 ft | 176 kts | 196° |
| 2026-04-26 16:37 | 29.59448 | 35.01205 | 260 ft | 197 kts | 196° |
| 2026-04-26 16:38 | 29.58072 | 35.00742 | 656 ft | 226 kts | 196° |
| 2026-04-26 16:38 | 29.56444 | 35.00334 | 1370 ft | 245 kts | 189° |
| 2026-04-26 16:38 | 29.54712 | 35.00021 | 2149 ft | 261 kts | 188° |
| 2026-04-26 16:38 | 29.52852 | 34.99705 | 3096 ft | 281 kts | 188° |
| 2026-04-26 16:39 | 29.50825 | 34.99360 | 4286 ft | 307 kts | 189° |
| 2026-04-26 16:39 | 29.48616 | 34.98974 | 5733 ft | 335 kts | 191° |
| 2026-04-26 16:39 | 29.46247 | 34.98517 | 7435 ft | 354 kts | 198° |
| 2026-04-26 16:39 | 29.44014 | 34.97332 | 9263 ft | 356 kts | 223° |
| 2026-04-26 16:40 | 29.42441 | 34.95171 | 11102 ft | 354 kts | 247° |
| 2026-04-26 16:40 | 29.41816 | 34.92459 | 12797 ft | 358 kts | 270° |
| 2026-04-26 16:40 | 29.42126 | 34.89576 | 14187 ft | 372 kts | 283° |
| 2026-04-26 16:40 | 29.42753 | 34.86644 | 15480 ft | 388 kts | 281° |
| 2026-04-26 16:41 | 29.43248 | 34.83530 | 16580 ft | 407 kts | 278° |
| 2026-04-26 16:41 | 29.43680 | 34.80262 | 17670 ft | 421 kts | 277° |
| 2026-04-26 16:41 | 29.44096 | 34.76881 | 18755 ft | 434 kts | 277° |
| 2026-04-26 16:41 | 29.44508 | 34.73427 | 19837 ft | 441 kts | 277° |
| 2026-04-26 16:42 | 29.44926 | 34.69908 | 20923 ft | 448 kts | 277° |
| 2026-04-26 16:42 | 29.45354 | 34.66344 | 22004 ft | 455 kts | 277° |
| 2026-04-26 16:42 | 29.45806 | 34.62713 | 23089 ft | 463 kts | 278° |
| 2026-04-26 16:42 | 29.46282 | 34.59042 | 24170 ft | 471 kts | 278° |
| 2026-04-26 16:43 | 29.46776 | 34.55284 | 25258 ft | 479 kts | 278° |
| 2026-04-26 16:43 | 29.47274 | 34.51483 | 26341 ft | 486 kts | 278° |
| 2026-04-26 16:43 | 29.47773 | 34.47605 | 27428 ft | 495 kts | 278° |
| 2026-04-26 16:43 | 29.48272 | 34.43669 | 28512 ft | 503 kts | 278° |
| 2026-04-26 16:44 | 29.48776 | 34.39666 | 29595 ft | 509 kts | 278° |
| 2026-04-26 16:44 | 29.49280 | 34.35648 | 30675 ft | 509 kts | 278° |
| 2026-04-26 16:44 | 29.49790 | 34.31599 | 31526 ft | 518 kts | 278° |
| 2026-04-26 16:44 | 29.50318 | 34.27438 | 31939 ft | 532 kts | 278° |
| 2026-04-26 16:45 | 29.51386 | 34.18979 | 31999 ft | 536 kts | 278° |
| 2026-04-26 16:45 | 29.52434 | 34.10565 | 32000 ft | 536 kts | 278° |
| 2026-04-26 16:46 | 29.53486 | 34.02090 | 31999 ft | 536 kts | 278° |
| 2026-04-26 16:46 | 29.54542 | 33.93562 | 31999 ft | 536 kts | 277° |
| 2026-04-26 16:47 | 29.55578 | 33.85140 | 32000 ft | 536 kts | 277° |
| 2026-04-26 16:47 | 29.56615 | 33.76662 | 32000 ft | 536 kts | 277° |
| 2026-04-26 16:48 | 29.57645 | 33.68187 | 32000 ft | 536 kts | 277° |
| 2026-04-26 16:48 | 29.58673 | 33.59702 | 31999 ft | 536 kts | 277° |
| 2026-04-26 16:49 | 29.59694 | 33.51210 | 31999 ft | 536 kts | 277° |
| 2026-04-26 16:49 | 29.60711 | 33.42724 | 31999 ft | 536 kts | 277° |
| 2026-04-26 16:50 | 29.61720 | 33.34234 | 31999 ft | 536 kts | 277° |
| 2026-04-26 16:50 | 29.62726 | 33.25745 | 31999 ft | 536 kts | 277° |
| 2026-04-26 16:51 | 29.63725 | 33.17254 | 31999 ft | 536 kts | 277° |
| 2026-04-26 16:51 | 29.64720 | 33.08753 | 31999 ft | 536 kts | 277° |
| 2026-04-26 16:52 | 29.65376 | 33.03130 | 31999 ft | 536 kts | 277° |
| 2026-04-26 16:52 | 29.66691 | 32.91771 | 31999 ft | 536 kts | 277° |
| 2026-04-26 16:53 | 29.67670 | 32.83275 | 31999 ft | 536 kts | 277° |
| 2026-04-26 16:53 | 29.68641 | 32.74774 | 31999 ft | 536 kts | 277° |
| 2026-04-26 16:54 | 29.69609 | 32.66273 | 31999 ft | 536 kts | 277° |
| 2026-04-26 16:54 | 29.70569 | 32.57773 | 31999 ft | 536 kts | 277° |
| 2026-04-26 16:55 | 29.71526 | 32.49268 | 31999 ft | 536 kts | 277° |
| 2026-04-26 16:55 | 29.72476 | 32.40759 | 31999 ft | 536 kts | 277° |
| 2026-04-26 16:56 | 29.73892 | 32.28002 | 32000 ft | 536 kts | 277° |
| 2026-04-26 16:57 | 29.74828 | 32.19498 | 32000 ft | 536 kts | 277° |
| 2026-04-26 16:57 | 29.76225 | 32.06727 | 31999 ft | 536 kts | 277° |
| 2026-04-26 16:58 | 29.76842 | 32.01033 | 32000 ft | 536 kts | 277° |
| 2026-04-26 16:59 | 29.79493 | 31.85726 | 31998 ft | 538 kts | 298° |
| 2026-04-26 17:00 | 29.87264 | 31.72690 | 32000 ft | 541 kts | 305° |
| 2026-04-26 17:00 | 29.94096 | 31.62347 | 32000 ft | 541 kts | 306° |
| 2026-04-26 17:01 | 29.98624 | 31.55427 | 32000 ft | 541 kts | 305° |
| 2026-04-26 17:01 | 30.03099 | 31.48449 | 32000 ft | 540 kts | 305° |
| 2026-04-26 17:02 | 30.07567 | 31.41475 | 31999 ft | 541 kts | 306° |
| 2026-04-26 17:02 | 30.12324 | 31.34733 | 32000 ft | 541 kts | 309° |
| 2026-04-26 17:03 | 30.17309 | 31.28210 | 32000 ft | 542 kts | 310° |
| 2026-04-26 17:03 | 30.22383 | 31.21764 | 32000 ft | 542 kts | 310° |
| 2026-04-26 17:04 | 30.27449 | 31.15305 | 32000 ft | 542 kts | 310° |
| 2026-04-26 17:04 | 30.32466 | 31.08798 | 32000 ft | 542 kts | 310° |
| 2026-04-26 17:05 | 30.37463 | 31.02268 | 32000 ft | 542 kts | 310° |
| 2026-04-26 17:05 | 30.42465 | 30.95739 | 32000 ft | 542 kts | 310° |
| 2026-04-26 17:06 | 30.47483 | 30.89220 | 32000 ft | 542 kts | 310° |
| 2026-04-26 17:06 | 30.52492 | 30.82688 | 32000 ft | 542 kts | 310° |
| 2026-04-26 17:07 | 30.57493 | 30.76143 | 32000 ft | 542 kts | 310° |
| 2026-04-26 17:07 | 30.62484 | 30.69599 | 32000 ft | 542 kts | 310° |
| 2026-04-26 17:08 | 30.67486 | 30.63038 | 32000 ft | 542 kts | 310° |
| 2026-04-26 17:08 | 30.72480 | 30.56481 | 32000 ft | 542 kts | 310° |
| 2026-04-26 17:09 | 30.76628 | 30.51025 | 32000 ft | 542 kts | 310° |
| 2026-04-26 17:09 | 30.82456 | 30.43340 | 32000 ft | 542 kts | 309° |
| 2026-04-26 17:10 | 30.87432 | 30.36767 | 32000 ft | 542 kts | 309° |
| 2026-04-26 17:10 | 30.92414 | 30.30176 | 32000 ft | 542 kts | 309° |
| 2026-04-26 17:11 | 30.97392 | 30.23580 | 32000 ft | 542 kts | 309° |
| 2026-04-26 17:11 | 31.02364 | 30.16980 | 32000 ft | 542 kts | 309° |
| 2026-04-26 17:12 | 31.09814 | 30.07070 | 32000 ft | 542 kts | 309° |
| 2026-04-26 17:13 | 31.17244 | 29.97132 | 31999 ft | 542 kts | 308° |
| 2026-04-26 17:14 | 31.24174 | 29.86716 | 32000 ft | 541 kts | 304° |
| 2026-04-26 17:14 | 31.30752 | 29.76020 | 32000 ft | 540 kts | 304° |
| 2026-04-26 17:15 | 31.35128 | 29.68832 | 32018 ft | 553 kts | 304° |
| 2026-04-26 17:15 | 31.37385 | 29.65136 | 32154 ft | 562 kts | 304° |
| 2026-04-26 17:15 | 31.39663 | 29.61446 | 32860 ft | 556 kts | 304° |
| 2026-04-26 17:16 | 31.41969 | 29.57731 | 33093 ft | 573 kts | 304° |
| 2026-04-26 17:16 | 31.44336 | 29.53920 | 33355 ft | 588 kts | 304° |
| 2026-04-26 17:16 | 31.46782 | 29.49965 | 33606 ft | 615 kts | 304° |
| 2026-04-26 17:16 | 31.49350 | 29.45794 | 34185 ft | 643 kts | 304° |
| 2026-04-26 17:17 | 31.51992 | 29.41491 | 35532 ft | 662 kts | 304° |
| 2026-04-26 17:17 | 31.54746 | 29.36996 | 36331 ft | 691 kts | 304° |
| 2026-04-26 17:17 | 31.57604 | 29.32329 | 37117 ft | 718 kts | 304° |
| 2026-04-26 17:17 | 31.60574 | 29.27491 | 37876 ft | 744 kts | 304° |
| 2026-04-26 17:18 | 31.63653 | 29.22473 | 38650 ft | 772 kts | 304° |
| 2026-04-26 17:18 | 31.66842 | 29.17267 | 39438 ft | 801 kts | 304° |
| 2026-04-26 17:18 | 31.70162 | 29.11834 | 40213 ft | 831 kts | 304° |
| 2026-04-26 17:18 | 31.73588 | 29.06214 | 40937 ft | 861 kts | 304° |
| 2026-04-26 17:19 | 31.80781 | 28.94385 | 42239 ft | 919 kts | 304° |
| 2026-04-26 17:19 | 31.84554 | 28.88165 | 42823 ft | 947 kts | 304° |
| 2026-04-26 17:19 | 31.88428 | 28.81772 | 43500 ft | 968 kts | 304° |
| 2026-04-26 17:20 | 31.92362 | 28.75275 | 44248 ft | 984 kts | 304° |
| 2026-04-26 17:20 | 31.95010 | 28.70897 | 44723 ft | 995 kts | 304° |
| 2026-04-26 17:20 | 32.00420 | 28.61940 | 45637 ft | 1016 kts | 304° |
| 2026-04-26 17:20 | 32.04557 | 28.55076 | 46281 ft | 1031 kts | 304° |
| 2026-04-26 17:21 | 32.08722 | 28.48150 | 46896 ft | 1046 kts | 304° |
| 2026-04-26 17:21 | 32.12961 | 28.41085 | 47490 ft | 1060 kts | 304° |
| 2026-04-26 17:21 | 32.17245 | 28.33930 | 48063 ft | 1074 kts | 304° |
| 2026-04-26 17:21 | 32.21575 | 28.26683 | 48615 ft | 1087 kts | 304° |
| 2026-04-26 17:22 | 32.25961 | 28.19327 | 49151 ft | 1100 kts | 304° |
| 2026-04-26 17:22 | 32.30389 | 28.11887 | 49674 ft | 1113 kts | 304° |
| 2026-04-26 17:22 | 32.34851 | 28.04376 | 50178 ft | 1125 kts | 304° |
| 2026-04-26 17:22 | 32.39351 | 27.96790 | 50422 ft | 1130 kts | 304° |
| 2026-04-26 17:23 | 32.43879 | 27.89144 | 50555 ft | 1133 kts | 304° |
| 2026-04-26 17:23 | 32.48404 | 27.81486 | 50705 ft | 1135 kts | 304° |
| 2026-04-26 17:23 | 32.52919 | 27.73826 | 50865 ft | 1135 kts | 304° |
| 2026-04-26 17:23 | 32.57433 | 27.66148 | 51014 ft | 1135 kts | 304° |
| 2026-04-26 17:24 | 32.61946 | 27.58453 | 51165 ft | 1136 kts | 304° |
| 2026-04-26 17:24 | 32.66457 | 27.50744 | 51315 ft | 1137 kts | 304° |
| 2026-04-26 17:24 | 32.70957 | 27.43036 | 51466 ft | 1137 kts | 304° |
| 2026-04-26 17:24 | 32.75457 | 27.35314 | 51616 ft | 1138 kts | 304° |
| 2026-04-26 17:25 | 32.80027 | 27.27455 | 51769 ft | 1138 kts | 304° |
| 2026-04-26 17:25 | 32.84452 | 27.19831 | 51917 ft | 1139 kts | 304° |
| 2026-04-26 17:25 | 32.89012 | 27.11960 | 52063 ft | 1139 kts | 304° |
| 2026-04-26 17:25 | 32.93500 | 27.04199 | 52207 ft | 1140 kts | 304° |